createdAt,value
2018-01-31T01:52:21.228Z,2.56
2018-01-31T01:53:19.763Z,2.48
2018-01-31T01:54:19.796Z,2.56
2018-01-31T01:55:19.816Z,2.46
2018-01-31T01:56:19.852Z,2.49
2018-01-31T01:57:19.877Z,2.56
2018-01-31T01:58:19.907Z,2.57
2018-01-31T01:59:19.951Z,2.53
2018-01-31T02:00:19.965Z,2.54
2018-01-31T02:01:19.995Z,2.66
2018-01-31T02:02:20.026Z,2.59
2018-01-31T02:03:20.055Z,2.71
2018-01-31T02:04:20.083Z,2.71
2018-01-31T02:05:20.137Z,2.79
2018-01-31T02:06:20.143Z,2.85
2018-01-31T02:07:20.173Z,2.82
2018-01-31T02:08:20.203Z,2.89
2018-01-31T02:09:20.296Z,2.92
2018-01-31T02:10:20.264Z,2.89
2018-01-31T02:11:20.294Z,2.95
2018-01-31T02:12:20.320Z,2.92
2018-01-31T02:13:20.363Z,2.96
2018-01-31T02:14:20.385Z,2.96
2018-01-31T02:15:20.415Z,2.90
2018-01-31T02:16:20.507Z,2.93
2018-01-31T02:17:20.468Z,2.87
2018-01-31T02:18:20.500Z,2.92
2018-01-31T02:19:20.542Z,2.90
2018-01-31T02:20:20.559Z,2.90
2018-01-31T02:21:20.593Z,2.89
2018-01-31T02:22:20.619Z,2.97
2018-01-31T02:23:20.650Z,2.97
2018-01-31T02:24:20.676Z,3.00
2018-01-31T02:25:20.708Z,3.03
2018-01-31T02:26:20.736Z,3.11
2018-01-31T02:27:20.766Z,3.03
2018-01-31T02:28:20.868Z,3.10
2018-01-31T02:29:20.826Z,3.15
2018-01-31T02:30:20.855Z,3.14
2018-01-31T02:31:20.899Z,3.26
2018-01-31T02:32:20.918Z,3.29
2018-01-31T02:33:20.947Z,3.32
2018-01-31T02:34:20.979Z,3.35
2018-01-31T02:35:21.003Z,3.47
2018-01-31T02:36:21.033Z,3.43
2018-01-31T02:37:21.061Z,3.42
2018-01-31T02:38:21.097Z,3.43
2018-01-31T02:39:21.122Z,3.45
2018-01-31T02:40:21.152Z,3.48
2018-01-31T02:41:21.182Z,3.48
2018-01-31T02:42:21.212Z,3.40
2018-01-31T02:43:21.240Z,3.54
2018-01-31T02:44:21.270Z,3.54
2018-01-31T02:45:21.327Z,3.52
2018-01-31T02:46:21.646Z,3.62
2018-01-31T02:47:21.358Z,3.68
2018-01-31T02:48:21.393Z,3.75
2018-01-31T02:49:21.422Z,3.76
2018-01-31T02:50:21.449Z,3.70
2018-01-31T02:51:21.479Z,3.73
2018-01-31T02:52:21.534Z,3.87
2018-01-31T02:53:21.540Z,3.76
2018-01-31T02:54:21.570Z,3.86
2018-01-31T02:55:21.600Z,3.78
2018-01-31T02:56:21.635Z,3.75
2018-01-31T02:57:21.669Z,3.73
2018-01-31T02:58:21.746Z,3.69
2018-01-31T02:59:21.720Z,3.57
2018-01-31T03:00:21.750Z,3.52
2018-01-31T03:01:21.780Z,3.39
2018-01-31T03:02:21.812Z,3.40
2018-01-31T03:03:21.841Z,3.35
2018-01-31T03:04:21.870Z,3.47
2018-01-31T03:05:21.901Z,3.31
2018-01-31T03:06:21.932Z,3.43
2018-01-31T03:07:21.967Z,3.39
2018-01-31T03:08:21.991Z,3.35
2018-01-31T03:09:22.066Z,3.36
2018-01-31T03:10:22.052Z,3.40
2018-01-31T03:11:22.081Z,3.43
2018-01-31T03:12:22.111Z,3.51
2018-01-31T03:13:22.135Z,3.50
2018-01-31T03:14:22.172Z,3.51
2018-01-31T03:15:22.197Z,3.48
2018-01-31T03:16:22.226Z,3.55
2018-01-31T03:17:22.256Z,3.52
2018-01-31T03:18:22.287Z,3.61
2018-01-31T03:19:22.317Z,3.51
2018-01-31T03:20:22.348Z,3.60
2018-01-31T03:21:22.396Z,3.54
2018-01-31T03:22:22.408Z,3.65
2018-01-31T03:23:22.437Z,3.61
2018-01-31T03:24:22.469Z,3.69
2018-01-31T03:25:22.498Z,3.65
2018-01-31T03:26:22.528Z,3.69
2018-01-31T03:27:22.572Z,3.72
2018-01-31T03:28:22.661Z,3.69
2018-01-31T03:29:22.619Z,3.68
2018-01-31T03:30:22.645Z,3.69
2018-01-31T03:31:22.679Z,3.69
2018-01-31T03:32:22.708Z,3.69
2018-01-31T03:33:22.737Z,3.69
2018-01-31T03:34:22.778Z,3.68
2018-01-31T03:35:22.801Z,3.68
2018-01-31T03:36:22.828Z,3.76
2018-01-31T03:37:22.858Z,3.78
2018-01-31T03:38:22.952Z,3.68
2018-01-31T03:39:22.924Z,3.66
2018-01-31T03:40:22.949Z,3.66
2018-01-31T03:41:22.978Z,3.66
2018-01-31T03:42:23.007Z,3.69
2018-01-31T03:43:23.038Z,3.72
2018-01-31T03:44:23.070Z,3.65
2018-01-31T03:45:23.123Z,3.65
2018-01-31T03:46:23.128Z,3.68
2018-01-31T03:47:23.156Z,3.65
2018-01-31T03:48:23.186Z,3.79
2018-01-31T03:49:23.224Z,3.78
2018-01-31T03:50:23.260Z,3.86
2018-01-31T03:51:23.276Z,3.84
2018-01-31T03:52:23.385Z,3.83
2018-01-31T03:53:23.337Z,3.96
2018-01-31T03:54:23.367Z,3.97
2018-01-31T03:55:23.391Z,4.04
2018-01-31T03:56:23.426Z,4.16
2018-01-31T03:57:23.457Z,4.22
2018-01-31T03:58:23.487Z,4.29
2018-01-31T03:59:23.511Z,4.27
2018-01-31T04:00:23.543Z,4.24
2018-01-31T04:01:23.572Z,4.30
2018-01-31T04:02:23.607Z,4.30
2018-01-31T04:03:23.633Z,4.27
2018-01-31T04:04:23.664Z,4.29
2018-01-31T04:05:23.692Z,4.34
2018-01-31T04:06:23.727Z,4.36
2018-01-31T04:07:23.754Z,4.37
2018-01-31T04:08:23.782Z,4.34
2018-01-31T04:09:23.813Z,4.45
2018-01-31T04:10:23.862Z,4.40
2018-01-31T04:11:23.873Z,4.40
2018-01-31T04:12:23.904Z,4.47
2018-01-31T04:13:23.939Z,4.48
2018-01-31T04:14:23.970Z,4.37
2018-01-31T04:15:23.999Z,4.50
2018-01-31T04:16:24.025Z,4.45
2018-01-31T04:17:24.059Z,4.48
2018-01-31T04:18:24.090Z,4.51
2018-01-31T04:19:24.116Z,4.52
2018-01-31T04:20:24.150Z,4.58
2018-01-31T04:21:24.183Z,4.59
2018-01-31T04:22:24.210Z,4.55
2018-01-31T04:23:24.253Z,4.54
2018-01-31T04:24:24.270Z,4.73
2018-01-31T04:25:24.301Z,4.65
2018-01-31T04:26:24.331Z,4.58
2018-01-31T04:27:24.362Z,4.72
2018-01-31T04:28:24.464Z,4.63
2018-01-31T04:29:24.420Z,4.60
2018-01-31T04:30:24.451Z,4.63
2018-01-31T04:31:24.480Z,4.78
2018-01-31T04:32:24.510Z,4.67
2018-01-31T04:33:24.544Z,4.72
2018-01-31T04:34:24.578Z,4.72
2018-01-31T04:35:24.617Z,4.77
2018-01-31T04:36:24.635Z,4.85
2018-01-31T04:37:24.667Z,4.85
2018-01-31T04:38:24.696Z,4.84
2018-01-31T04:39:24.726Z,4.91
2018-01-31T04:40:24.756Z,4.94
2018-01-31T04:41:24.787Z,5.00
2018-01-31T04:42:24.818Z,4.97
2018-01-31T04:43:24.848Z,5.12
2018-01-31T04:44:24.882Z,5.09
2018-01-31T04:45:24.963Z,5.12
2018-01-31T04:46:24.943Z,5.18
2018-01-31T04:47:24.973Z,5.12
2018-01-31T04:48:25.003Z,5.24
2018-01-31T04:49:25.036Z,5.18
2018-01-31T04:50:25.063Z,5.21
2018-01-31T04:51:25.093Z,5.18
2018-01-31T04:52:25.204Z,5.25
2018-01-31T04:53:25.157Z,5.28
2018-01-31T04:54:25.186Z,5.43
2018-01-31T04:55:25.216Z,5.27
2018-01-31T04:56:25.247Z,5.38
2018-01-31T04:57:25.279Z,5.35
2018-01-31T04:58:25.314Z,5.43
2018-01-31T04:59:25.340Z,5.42
2018-01-31T05:00:25.375Z,5.48
2018-01-31T05:01:25.404Z,5.45
2018-01-31T05:02:25.436Z,5.43
2018-01-31T05:03:25.462Z,5.46
2018-01-31T05:04:25.582Z,5.49
2018-01-31T05:05:25.524Z,5.51
2018-01-31T05:06:25.557Z,5.35
2018-01-31T05:07:25.587Z,5.46
2018-01-31T05:08:25.618Z,5.53
2018-01-31T05:09:25.647Z,5.42
2018-01-31T05:10:25.678Z,5.46
2018-01-31T05:11:25.859Z,5.46
2018-01-31T05:12:25.741Z,5.42
2018-01-31T05:13:25.773Z,5.35
2018-01-31T05:14:25.806Z,5.45
2018-01-31T05:15:25.831Z,5.40
2018-01-31T05:16:25.866Z,5.48
2018-01-31T05:17:25.897Z,5.60
2018-01-31T05:18:25.926Z,5.57
2018-01-31T05:19:25.968Z,5.57
2018-01-31T05:20:25.987Z,5.63
2018-01-31T05:21:26.020Z,5.64
2018-01-31T05:22:26.049Z,5.65
2018-01-31T05:23:26.085Z,5.65
2018-01-31T05:24:26.109Z,5.71
2018-01-31T05:25:26.141Z,5.68
2018-01-31T05:26:26.177Z,5.67
2018-01-31T05:27:26.204Z,5.72
2018-01-31T05:28:26.278Z,5.78
2018-01-31T05:29:26.268Z,5.76
2018-01-31T05:30:26.298Z,5.75
2018-01-31T05:31:26.329Z,5.76
2018-01-31T05:32:26.360Z,5.83
2018-01-31T05:33:26.389Z,5.81
2018-01-31T05:34:26.419Z,5.83
2018-01-31T05:35:26.554Z,5.82
2018-01-31T05:36:26.478Z,5.81
2018-01-31T05:37:26.512Z,5.90
2018-01-31T05:38:26.542Z,5.85
2018-01-31T05:39:26.572Z,5.94
2018-01-31T05:40:26.604Z,6.01
2018-01-31T05:41:26.634Z,5.90
2018-01-31T05:42:26.671Z,5.91
2018-01-31T05:43:26.702Z,5.97
2018-01-31T05:44:26.730Z,6.00
2018-01-31T05:45:26.762Z,6.00
2018-01-31T05:46:26.791Z,6.00
2018-01-31T05:47:26.839Z,5.99
2018-01-31T05:48:26.849Z,6.09
2018-01-31T05:49:26.883Z,6.18
2018-01-31T05:50:26.918Z,6.19
2018-01-31T05:51:26.946Z,6.25
2018-01-31T05:52:26.993Z,6.37
2018-01-31T05:53:27.015Z,6.33
2018-01-31T05:54:27.039Z,6.48
2018-01-31T05:55:27.071Z,6.56
2018-01-31T05:56:27.099Z,6.62
2018-01-31T05:57:27.133Z,6.56
2018-01-31T05:58:27.164Z,6.56
2018-01-31T05:59:27.194Z,6.66
2018-01-31T06:00:27.226Z,6.61
2018-01-31T06:01:27.257Z,6.66
2018-01-31T06:02:27.299Z,6.66
2018-01-31T06:03:27.318Z,6.64
2018-01-31T06:04:27.401Z,6.71
2018-01-31T06:05:27.382Z,6.74
2018-01-31T06:06:27.412Z,6.77
2018-01-31T06:07:27.443Z,6.73
2018-01-31T06:08:27.476Z,6.76
2018-01-31T06:09:27.513Z,6.81
2018-01-31T06:10:27.539Z,6.79
2018-01-31T06:11:27.675Z,6.79
2018-01-31T06:12:27.603Z,6.88
2018-01-31T06:13:27.634Z,6.81
2018-01-31T06:14:27.664Z,6.88
2018-01-31T06:15:27.696Z,6.85
2018-01-31T06:16:27.726Z,6.88
2018-01-31T06:17:27.758Z,6.88
2018-01-31T06:18:28.105Z,6.91
2018-01-31T06:19:27.824Z,6.91
2018-01-31T06:20:27.860Z,6.94
2018-01-31T06:21:27.884Z,6.95
2018-01-31T06:22:27.918Z,6.97
2018-01-31T06:23:27.944Z,6.92
2018-01-31T06:24:27.977Z,6.95
2018-01-31T06:25:28.007Z,7.02
2018-01-31T06:26:28.040Z,7.07
2018-01-31T06:27:28.070Z,7.06
2018-01-31T06:28:28.118Z,7.05
2018-01-31T06:29:28.135Z,7.06
2018-01-31T06:30:28.169Z,7.12
2018-01-31T06:31:28.200Z,7.12
2018-01-31T06:32:28.229Z,7.17
2018-01-31T06:33:28.276Z,7.23
2018-01-31T06:34:28.296Z,7.20
2018-01-31T06:35:28.641Z,7.20
2018-01-31T06:36:28.357Z,7.23
2018-01-31T06:37:28.388Z,7.25
2018-01-31T06:38:28.421Z,7.24
2018-01-31T06:39:28.448Z,7.23
2018-01-31T06:40:28.487Z,7.32
2018-01-31T06:41:28.516Z,7.37
2018-01-31T06:42:28.568Z,7.37
2018-01-31T06:43:28.577Z,7.39
2018-01-31T06:44:28.609Z,7.39
2018-01-31T06:45:28.639Z,7.40
2018-01-31T06:46:28.674Z,7.39
2018-01-31T06:47:28.703Z,7.42
2018-01-31T06:48:28.737Z,7.46
2018-01-31T06:49:28.767Z,7.49
2018-01-31T06:50:28.801Z,7.42
2018-01-31T06:51:28.830Z,7.46
2018-01-31T06:52:28.864Z,7.46
2018-01-31T06:53:28.898Z,7.48
2018-01-31T06:54:29.290Z,7.55
2018-01-31T06:55:28.972Z,7.46
2018-01-31T06:56:28.990Z,7.50
2018-01-31T06:57:29.021Z,7.50
2018-01-31T06:58:29.060Z,7.61
2018-01-31T06:59:29.089Z,7.63
2018-01-31T07:00:29.120Z,7.57
2018-01-31T07:01:29.214Z,7.55
2018-01-31T07:02:29.183Z,7.50
2018-01-31T07:03:29.215Z,7.63
2018-01-31T07:04:29.246Z,7.61
2018-01-31T07:05:29.279Z,7.53
2018-01-31T07:06:29.314Z,7.52
2018-01-31T07:07:29.340Z,7.63
2018-01-31T07:08:29.372Z,7.60
2018-01-31T07:09:29.404Z,7.60
2018-01-31T07:10:29.439Z,7.61
2018-01-31T07:11:29.473Z,7.58
2018-01-31T07:12:29.500Z,7.60
2018-01-31T07:13:29.532Z,7.60
2018-01-31T07:14:29.566Z,7.57
2018-01-31T07:15:29.596Z,7.58
2018-01-31T07:16:29.630Z,7.63
2018-01-31T07:17:29.662Z,7.58
2018-01-31T07:18:29.766Z,7.63
2018-01-31T07:19:29.723Z,7.69
2018-01-31T07:20:29.769Z,7.61
2018-01-31T07:21:29.797Z,7.57
2018-01-31T07:22:29.821Z,7.61
2018-01-31T07:23:29.852Z,7.68
2018-01-31T07:24:29.888Z,7.63
2018-01-31T07:25:30.056Z,7.64
2018-01-31T07:26:29.953Z,7.69
2018-01-31T07:27:29.983Z,7.58
2018-01-31T07:28:30.014Z,7.58
2018-01-31T07:29:30.050Z,7.72
2018-01-31T07:30:30.078Z,7.72
2018-01-31T07:31:30.113Z,7.71
2018-01-31T07:32:30.144Z,7.80
2018-01-31T07:33:30.200Z,7.79
2018-01-31T07:34:30.208Z,7.72
2018-01-31T07:35:30.244Z,7.77
2018-01-31T07:36:30.276Z,7.75
2018-01-31T07:37:30.306Z,7.80
2018-01-31T07:38:30.338Z,7.83
2018-01-31T07:39:30.375Z,7.79
2018-01-31T07:40:30.401Z,7.83
2018-01-31T07:41:30.433Z,7.90
2018-01-31T07:42:30.463Z,7.87
2018-01-31T07:43:30.495Z,7.92
2018-01-31T07:44:30.552Z,7.90
2018-01-31T07:45:30.561Z,7.93
2018-01-31T07:46:30.595Z,7.97
2018-01-31T07:47:30.624Z,8.04
2018-01-31T07:48:30.669Z,8.02
2018-01-31T07:49:30.687Z,8.01
2018-01-31T07:50:30.719Z,8.01
2018-01-31T07:51:30.756Z,8.07
2018-01-31T07:52:30.785Z,8.02
2018-01-31T07:53:30.817Z,8.01
2018-01-31T07:54:30.851Z,8.04
2018-01-31T07:55:30.881Z,8.08
2018-01-31T07:56:30.934Z,8.08
2018-01-31T07:57:30.994Z,8.00
2018-01-31T07:58:30.986Z,8.08
2018-01-31T07:59:31.008Z,8.12
2018-01-31T08:00:31.045Z,8.12
2018-01-31T08:01:31.100Z,8.12
2018-01-31T08:02:31.110Z,8.10
2018-01-31T08:03:31.142Z,8.12
2018-01-31T08:04:31.172Z,8.20
2018-01-31T08:05:31.209Z,8.18
2018-01-31T08:06:31.248Z,8.19
2018-01-31T08:07:31.268Z,8.20
2018-01-31T08:08:31.361Z,8.10
2018-01-31T08:09:31.337Z,8.18
2018-01-31T08:10:31.376Z,8.15
2018-01-31T08:11:31.399Z,8.22
2018-01-31T08:12:31.430Z,8.20
2018-01-31T08:13:31.468Z,8.28
2018-01-31T08:14:31.499Z,8.37
2018-01-31T08:15:31.558Z,8.33
2018-01-31T08:16:31.561Z,8.36
2018-01-31T08:17:31.595Z,8.36
2018-01-31T08:18:31.625Z,8.44
2018-01-31T08:19:31.664Z,8.50
2018-01-31T08:20:31.688Z,8.44
2018-01-31T08:21:31.722Z,8.45
2018-01-31T08:22:31.754Z,8.45
2018-01-31T08:23:31.789Z,8.45
2018-01-31T08:24:31.819Z,8.47
2018-01-31T08:25:31.871Z,8.50
2018-01-31T08:26:31.884Z,8.58
2018-01-31T08:27:31.922Z,8.62
2018-01-31T08:28:31.949Z,8.63
2018-01-31T08:29:31.981Z,8.68
2018-01-31T08:30:32.015Z,8.68
2018-01-31T08:31:32.051Z,8.68
2018-01-31T08:32:32.089Z,8.68
2018-01-31T08:33:32.112Z,8.68
2018-01-31T08:34:32.150Z,8.71
2018-01-31T08:35:32.180Z,8.66
2018-01-31T08:36:32.212Z,8.70
2018-01-31T08:37:32.247Z,8.68
2018-01-31T08:38:32.282Z,8.62
2018-01-31T08:39:32.311Z,8.73
2018-01-31T08:40:32.344Z,8.71
2018-01-31T08:41:32.373Z,8.76
2018-01-31T08:42:32.412Z,8.65
2018-01-31T08:43:32.443Z,8.71
2018-01-31T08:44:32.507Z,8.66
2018-01-31T08:45:32.507Z,8.81
2018-01-31T08:46:32.542Z,8.83
2018-01-31T08:47:32.573Z,8.79
2018-01-31T08:48:32.605Z,8.86
2018-01-31T08:49:32.638Z,8.86
2018-01-31T08:50:32.673Z,8.87
2018-01-31T08:51:32.737Z,8.92
2018-01-31T08:52:32.737Z,8.94
2018-01-31T08:53:32.771Z,8.94
2018-01-31T08:54:32.803Z,8.94
2018-01-31T08:55:32.832Z,8.96
2018-01-31T08:56:32.868Z,8.89
2018-01-31T08:57:32.903Z,8.96
2018-01-31T08:58:32.991Z,8.99
2018-01-31T08:59:32.967Z,9.10
2018-01-31T09:00:33.000Z,9.11
2018-01-31T09:01:33.034Z,9.05
2018-01-31T09:02:33.066Z,9.17
2018-01-31T09:03:33.096Z,9.15
2018-01-31T09:04:33.135Z,9.23
2018-01-31T09:05:33.164Z,9.20
2018-01-31T09:06:33.197Z,9.31
2018-01-31T09:07:33.235Z,9.31
2018-01-31T09:08:33.264Z,9.21
2018-01-31T09:09:33.295Z,9.31
2018-01-31T09:10:33.331Z,9.23
2018-01-31T09:11:33.365Z,9.31
2018-01-31T09:12:33.396Z,9.38
2018-01-31T09:13:33.431Z,9.38
2018-01-31T09:14:33.461Z,9.42
2018-01-31T09:15:33.649Z,9.48
2018-01-31T09:16:33.528Z,9.53
2018-01-31T09:17:33.562Z,9.51
2018-01-31T09:18:33.596Z,9.47
2018-01-31T09:19:33.628Z,9.48
2018-01-31T09:20:33.661Z,9.57
2018-01-31T09:21:33.703Z,9.57
2018-01-31T09:22:33.732Z,9.51
2018-01-31T09:23:33.763Z,9.61
2018-01-31T09:24:33.799Z,9.64
2018-01-31T09:25:33.829Z,9.61
2018-01-31T09:26:33.863Z,9.65
2018-01-31T09:27:33.947Z,9.76
2018-01-31T09:28:33.930Z,9.75
2018-01-31T09:29:33.967Z,9.79
2018-01-31T09:30:34.062Z,9.79
2018-01-31T09:31:34.031Z,9.78
2018-01-31T09:32:34.064Z,9.87
2018-01-31T09:33:34.099Z,9.91
2018-01-31T09:34:34.163Z,9.93
2018-01-31T09:35:34.163Z,10.12
2018-01-31T09:36:34.198Z,9.97
2018-01-31T09:37:34.230Z,9.91
2018-01-31T09:38:34.269Z,10.01
2018-01-31T09:39:34.299Z,10.07
2018-01-31T09:40:34.331Z,10.11
2018-01-31T09:41:34.370Z,10.20
2018-01-31T09:42:34.404Z,10.22
2018-01-31T09:43:34.435Z,10.12
2018-01-31T09:44:34.470Z,10.12
2018-01-31T09:45:34.502Z,10.05
2018-01-31T09:46:34.540Z,10.05
2018-01-31T09:47:34.570Z,10.12
2018-01-31T09:48:34.605Z,10.12
2018-01-31T09:49:34.636Z,10.08
2018-01-31T09:50:34.673Z,10.12
2018-01-31T09:51:34.710Z,10.08
2018-01-31T09:52:34.938Z,10.11
2018-01-31T09:53:34.776Z,10.04
2018-01-31T09:54:34.812Z,10.09
2018-01-31T09:55:34.841Z,10.18
2018-01-31T09:56:34.891Z,10.18
2018-01-31T09:57:34.911Z,10.36
2018-01-31T09:58:34.981Z,10.26
2018-01-31T09:59:34.982Z,10.23
2018-01-31T10:00:35.014Z,10.22
2018-01-31T10:01:35.045Z,10.29
2018-01-31T10:02:35.084Z,10.17
2018-01-31T10:03:35.114Z,10.17
2018-01-31T10:04:35.153Z,10.09
2018-01-31T10:05:35.250Z,10.08
2018-01-31T10:06:35.279Z,10.07
2018-01-31T10:07:35.253Z,10.09
2018-01-31T10:08:35.284Z,9.99
2018-01-31T10:09:35.323Z,9.97
2018-01-31T10:10:35.355Z,9.96
2018-01-31T10:11:35.387Z,10.05
2018-01-31T10:12:35.423Z,9.99
2018-01-31T10:13:35.458Z,10.17
2018-01-31T10:14:35.504Z,10.17
2018-01-31T10:15:35.526Z,10.07
2018-01-31T10:16:35.558Z,10.15
2018-01-31T10:17:35.646Z,10.11
2018-01-31T10:18:35.635Z,10.15
2018-01-31T10:19:35.675Z,10.12
2018-01-31T10:20:35.696Z,10.14
2018-01-31T10:21:35.745Z,10.09
2018-01-31T10:22:35.768Z,10.09
2018-01-31T10:23:35.806Z,10.20
2018-01-31T10:24:35.936Z,10.17
2018-01-31T10:25:35.879Z,10.18
2018-01-31T10:26:35.913Z,10.30
2018-01-31T10:27:35.938Z,10.15
2018-01-31T10:28:35.968Z,10.23
2018-01-31T10:29:36.007Z,10.15
2018-01-31T10:30:36.040Z,10.09
2018-01-31T10:31:36.074Z,9.93
2018-01-31T10:32:36.108Z,9.94
2018-01-31T10:33:36.156Z,9.87
2018-01-31T10:34:36.191Z,9.87
2018-01-31T10:35:36.240Z,9.90
2018-01-31T10:36:36.246Z,9.91
2018-01-31T10:37:36.283Z,9.84
2018-01-31T10:38:36.317Z,9.87
2018-01-31T10:39:36.349Z,9.86
2018-01-31T10:40:36.386Z,9.81
2018-01-31T10:41:36.418Z,9.86
2018-01-31T10:42:36.452Z,9.86
2018-01-31T10:43:36.486Z,9.84
2018-01-31T10:44:36.519Z,9.90
2018-01-31T10:45:36.557Z,9.90
2018-01-31T10:46:36.587Z,9.94
2018-01-31T10:47:36.619Z,9.86
2018-01-31T10:48:36.740Z,9.94
2018-01-31T10:49:36.691Z,9.90
2018-01-31T10:50:36.724Z,9.84
2018-01-31T10:51:36.757Z,9.84
2018-01-31T10:52:36.848Z,9.90
2018-01-31T10:57:28.684Z,9.94
2018-01-31T10:57:36.965Z,10.23
2018-01-31T10:58:36.998Z,10.34
2018-01-31T10:59:37.028Z,10.38
2018-01-31T11:00:37.070Z,10.41
2018-01-31T11:01:37.098Z,10.32
2018-01-31T11:02:37.134Z,10.34
2018-01-31T11:03:37.179Z,10.29
2018-01-31T11:04:37.203Z,10.23
2018-01-31T11:05:37.240Z,10.34
2018-01-31T11:06:37.270Z,10.25
2018-01-31T11:07:37.310Z,10.23
2018-01-31T11:08:37.340Z,10.27
2018-01-31T11:09:37.373Z,10.34
2018-01-31T11:10:37.411Z,10.32
2018-01-31T11:11:37.443Z,10.47
2018-01-31T11:12:37.496Z,10.44
2018-01-31T11:13:37.510Z,10.47
2018-01-31T11:14:37.628Z,10.64
2018-01-31T11:15:37.577Z,10.59
2018-01-31T11:16:37.612Z,10.63
2018-01-31T11:17:37.651Z,10.76
2018-01-31T11:18:37.682Z,10.74
2018-01-31T11:19:37.715Z,10.74
2018-01-31T11:20:37.751Z,10.73
2018-01-31T11:21:37.843Z,10.74
2018-01-31T11:22:37.821Z,10.76
2018-01-31T11:23:37.857Z,10.60
2018-01-31T11:24:37.901Z,10.68
2018-01-31T11:25:37.924Z,10.67
2018-01-31T11:26:37.965Z,10.63
2018-01-31T11:27:38.007Z,10.68
2018-01-31T11:28:38.027Z,10.59
2018-01-31T11:29:38.063Z,10.59
2018-01-31T11:30:38.097Z,10.55
2018-01-31T11:31:38.131Z,10.59
2018-01-31T11:32:38.168Z,10.68
2018-01-31T11:33:38.203Z,10.71
2018-01-31T11:34:38.235Z,10.73
2018-01-31T11:35:38.274Z,10.68
2018-01-31T11:36:38.305Z,10.60
2018-01-31T11:37:38.354Z,10.71
2018-01-31T11:38:38.377Z,10.74
2018-01-31T11:39:38.410Z,10.68
2018-01-31T11:40:38.445Z,10.60
2018-01-31T11:41:38.537Z,10.76
2018-01-31T11:42:38.514Z,10.74
2018-01-31T11:43:38.548Z,10.82
2018-01-31T11:44:38.585Z,10.70
2018-01-31T11:45:38.670Z,10.71
2018-01-31T11:46:38.654Z,10.81
2018-01-31T11:47:38.691Z,10.73
2018-01-31T11:48:38.725Z,10.74
2018-01-31T11:49:38.760Z,10.74
2018-01-31T11:50:38.810Z,10.70
2018-01-31T11:51:38.826Z,10.68
2018-01-31T11:52:39.180Z,10.64
2018-01-31T11:53:38.898Z,10.64
2018-01-31T11:54:38.935Z,10.67
2018-01-31T11:55:38.965Z,10.60
2018-01-31T11:56:39.005Z,10.61
2018-01-31T11:57:39.095Z,10.53
2018-01-31T11:58:39.079Z,10.56
2018-01-31T11:59:39.106Z,10.60
2018-01-31T12:00:39.142Z,10.56
2018-01-31T12:01:39.180Z,10.53
2018-01-31T12:02:39.211Z,10.53
2018-01-31T12:03:39.245Z,10.53
2018-01-31T12:04:39.281Z,10.60
2018-01-31T12:05:39.330Z,10.53
2018-01-31T12:06:39.406Z,10.60
2018-01-31T12:07:39.401Z,10.67
2018-01-31T12:08:39.432Z,10.61
2018-01-31T12:09:39.456Z,10.53
2018-01-31T12:10:39.490Z,10.44
2018-01-31T12:11:39.540Z,10.52
2018-01-31T12:12:39.562Z,10.48
2018-01-31T12:13:39.597Z,10.48
2018-01-31T12:14:39.630Z,10.48
2018-01-31T12:15:39.668Z,10.42
2018-01-31T12:16:39.699Z,10.44
2018-01-31T12:17:39.734Z,10.40
2018-01-31T12:18:40.100Z,10.44
2018-01-31T12:19:39.805Z,10.38
2018-01-31T12:20:39.840Z,10.41
2018-01-31T12:21:39.874Z,10.32
2018-01-31T12:22:39.910Z,10.11
2018-01-31T12:23:39.949Z,10.07
2018-01-31T12:24:39.991Z,9.93
2018-01-31T12:25:40.115Z,9.96
2018-01-31T12:26:40.050Z,10.01
2018-01-31T12:27:40.084Z,9.93
2018-01-31T12:28:40.123Z,10.05
2018-01-31T12:29:40.150Z,10.07
2018-01-31T12:30:40.190Z,10.05
2018-01-31T12:31:40.227Z,10.09
2018-01-31T12:32:40.252Z,10.15
2018-01-31T12:33:40.290Z,10.18
2018-01-31T12:34:40.322Z,10.18
2018-01-31T12:35:40.361Z,10.20
2018-01-31T12:36:40.390Z,10.14
2018-01-31T12:37:40.424Z,10.07
2018-01-31T12:38:40.461Z,10.07
2018-01-31T12:39:40.492Z,10.08
2018-01-31T12:40:40.531Z,10.23
2018-01-31T12:41:40.563Z,10.15
2018-01-31T12:42:40.602Z,10.15
2018-01-31T12:43:40.637Z,10.05
2018-01-31T12:44:40.663Z,10.09
2018-01-31T12:45:40.717Z,10.08
2018-01-31T12:46:40.734Z,10.12
2018-01-31T12:47:40.772Z,9.99
2018-01-31T12:48:40.804Z,9.94
2018-01-31T12:49:40.867Z,9.90
2018-01-31T12:50:40.872Z,9.74
2018-01-31T12:51:40.906Z,9.76
2018-01-31T12:52:40.942Z,9.83
2018-01-31T12:53:40.975Z,9.75
2018-01-31T12:54:41.009Z,9.75
2018-01-31T12:55:41.047Z,9.78
2018-01-31T12:56:41.085Z,9.78
2018-01-31T12:57:41.114Z,9.75
2018-01-31T12:58:41.146Z,9.76
2018-01-31T12:59:41.179Z,9.79
2018-01-31T13:00:41.219Z,9.81
2018-01-31T13:01:41.673Z,9.71
2018-01-31T13:02:41.284Z,9.72
2018-01-31T13:03:41.316Z,9.81
2018-01-31T13:04:41.355Z,9.64
2018-01-31T13:05:41.383Z,9.76
2018-01-31T13:06:41.418Z,9.75
2018-01-31T13:07:41.454Z,9.72
2018-01-31T13:08:41.539Z,9.68
2018-01-31T13:09:41.520Z,9.68
2018-01-31T13:10:41.555Z,9.64
2018-01-31T13:11:41.587Z,9.65
2018-01-31T13:12:41.625Z,9.64
2018-01-31T13:13:41.657Z,9.64
2018-01-31T13:14:41.690Z,9.53
2018-01-31T13:15:42.052Z,9.61
2018-01-31T13:16:41.960Z,9.58
2018-01-31T13:17:41.812Z,9.57
2018-01-31T13:18:41.826Z,9.48
2018-01-31T13:19:41.868Z,9.51
2018-01-31T13:20:42.354Z,9.50
2018-01-31T13:21:41.926Z,9.46
2018-01-31T13:22:42.078Z,9.47
2018-01-31T13:23:41.997Z,9.40
2018-01-31T13:24:42.035Z,9.36
2018-01-31T13:25:42.066Z,9.35
2018-01-31T13:26:42.097Z,9.24
2018-01-31T13:27:42.128Z,9.20
2018-01-31T13:28:42.167Z,9.29
2018-01-31T13:29:42.199Z,9.32
2018-01-31T13:30:42.231Z,9.29
2018-01-31T13:31:42.265Z,9.24
2018-01-31T13:32:42.298Z,9.20
2018-01-31T13:33:42.333Z,9.29
2018-01-31T13:34:42.382Z,9.14
2018-01-31T13:35:42.397Z,9.23
2018-01-31T13:36:42.433Z,9.20
2018-01-31T13:37:42.468Z,9.17
2018-01-31T13:38:42.501Z,9.23
2018-01-31T13:39:42.550Z,9.24
2018-01-31T13:40:42.571Z,9.21
2018-01-31T13:41:42.599Z,9.21
2018-01-31T13:42:42.633Z,9.20
2018-01-31T13:43:42.668Z,9.23
2018-01-31T13:44:42.701Z,9.21
2018-01-31T13:45:42.739Z,9.21
2018-01-31T13:46:42.769Z,9.26
2018-01-31T13:47:42.811Z,9.23
2018-01-31T13:48:42.832Z,9.21
2018-01-31T13:49:42.870Z,9.24
2018-01-31T13:50:42.899Z,9.23
2018-01-31T13:51:42.931Z,9.18
2018-01-31T13:52:42.964Z,9.15
2018-01-31T13:53:43.003Z,9.17
2018-01-31T13:54:43.032Z,9.14
2018-01-31T13:55:43.073Z,9.14
2018-01-31T13:56:43.101Z,9.11
2018-01-31T13:57:43.135Z,9.11
2018-01-31T13:58:43.179Z,9.13
2018-01-31T13:59:43.200Z,9.14
2018-01-31T14:00:43.233Z,9.14
2018-01-31T14:01:43.266Z,9.08
2018-01-31T14:02:43.301Z,9.10
2018-01-31T14:03:43.331Z,9.05
2018-01-31T14:04:43.370Z,9.04
2018-01-31T14:05:43.607Z,9.08
2018-01-31T14:06:43.433Z,9.08
2018-01-31T14:07:43.476Z,9.10
2018-01-31T14:08:43.501Z,9.08
2018-01-31T14:09:43.532Z,9.11
2018-01-31T14:10:43.583Z,9.10
2018-01-31T14:11:43.602Z,9.02
2018-01-31T14:12:43.711Z,9.04
2018-01-31T14:13:43.675Z,9.05
2018-01-31T14:14:43.703Z,8.99
2018-01-31T14:15:43.753Z,9.01
2018-01-31T14:16:43.765Z,8.95
2018-01-31T14:17:43.803Z,9.01
2018-01-31T14:18:43.833Z,8.98
2018-01-31T14:19:43.870Z,9.02
2018-01-31T14:20:43.896Z,8.94
2018-01-31T14:21:43.933Z,9.05
2018-01-31T14:22:43.964Z,8.98
2018-01-31T14:23:43.999Z,9.04
2018-01-31T14:24:44.029Z,9.10
2018-01-31T14:25:44.066Z,9.14
2018-01-31T14:26:44.097Z,9.15
2018-01-31T14:27:44.129Z,9.15
2018-01-31T14:28:44.164Z,9.24
2018-01-31T14:29:44.204Z,9.20
2018-01-31T14:30:44.274Z,9.26
2018-01-31T14:31:44.265Z,9.20
2018-01-31T14:32:44.294Z,9.21
2018-01-31T14:33:44.335Z,9.17
2018-01-31T14:34:44.366Z,9.15
2018-01-31T14:35:44.394Z,9.13
2018-01-31T14:36:44.487Z,9.10
2018-01-31T14:37:44.468Z,9.10
2018-01-31T14:38:44.500Z,9.14
2018-01-31T14:39:44.528Z,9.14
2018-01-31T14:40:44.561Z,9.13
2018-01-31T14:41:44.596Z,9.14
2018-01-31T14:42:44.642Z,9.20
2018-01-31T14:43:44.660Z,9.17
2018-01-31T14:44:44.692Z,9.24
2018-01-31T14:45:44.746Z,9.20
2018-01-31T14:46:44.759Z,9.21
2018-01-31T14:47:44.792Z,9.28
2018-01-31T14:48:44.827Z,9.10
2018-01-31T14:49:44.863Z,9.14
2018-01-31T14:50:44.892Z,9.21
2018-01-31T14:51:44.927Z,9.17
2018-01-31T14:52:44.957Z,9.14
2018-01-31T14:53:44.991Z,9.14
2018-01-31T14:54:45.028Z,9.15
2018-01-31T14:55:45.068Z,9.11
2018-01-31T14:56:45.090Z,9.17
2018-01-31T14:57:45.335Z,9.15
2018-01-31T14:58:45.159Z,9.11
2018-01-31T14:59:45.190Z,9.13
2018-01-31T15:00:45.240Z,9.14
2018-01-31T15:01:45.258Z,9.15
2018-01-31T15:02:45.362Z,9.14
2018-01-31T15:03:45.321Z,9.11
2018-01-31T15:04:45.362Z,9.10
2018-01-31T15:05:45.390Z,9.10
2018-01-31T15:06:45.422Z,9.14
2018-01-31T15:07:45.457Z,9.17
2018-01-31T15:08:45.491Z,9.17